METAR Data
IDs: Format: Raw Decoded Include TAF

Data at: 0804 UTC 07 Dec 2021

KBCT 070153Z 00000KT 7SM BKN050 22/22 A3009
KBCT 062353Z 00000KT 8SM FEW045 23/22 A3006
KBCT 062253Z 00000KT 8SM FEW041 23/22 A3005
KBCT 062153Z 27006KT 8SM BR FEW020 SCT040 23/23 A3005
KBCT 062124Z 21008KT 6SM -RA SCT008 BKN035 23/22 A3005
KBCT 062053Z 21010KT 2SM -RA OVC007 24/23 A3005
KBCT 061953Z 13008KT 100V170 6SM -RA SCT016 BKN040 26/24 A3004 RMK LTG DSNT S
KBCT 061847Z 13004KT 9SM VCTS BKN015 27/24 A3005 RMK LTG DSNT S.
KBCT 061753Z 13006KT 100V180 10SM VCTS BKN015 28/24 A3008 RMK LTG DSNT S.
KBCT 061653Z 12005KT 10SM SCT030 26/24 A3011
KBCT 061453Z 10004KT 4SM BR HZ BKN024 25/23 A3016
KBCT 061353Z 11006KT 6SM BR BKN025 23/23 A3014
KBCT 061253Z 15006KT 4SM BR FEW012 BKN022 22/22 A3013
KBCT 061147Z 09008KT 6SM SCT026 BKN035 22/22 A3012
KBCT 060353Z 09003KT 6SM BR SCT037 20/20 A3013
KBCT 060053Z 09003KT 7SM FEW035 22/21 A3011
KBCT 052253Z 09008KT 10SM SCT035 23/21 A3009
KBCT 052153Z 09008KT 10SM SCT035 25/20 A3009
KBCT 052053Z 09009G19KT 10SM SCT025 25/21 A3008